createdAt,value
2022-11-24T00:01:27.976Z,56.24
2022-11-24T00:04:04.949Z,56.45
2022-11-24T00:06:35.597Z,56.30
2022-11-24T00:09:04.983Z,56.42
2022-11-24T00:11:36.136Z,56.00
2022-11-24T00:14:06.086Z,56.51
2022-11-24T00:16:37.359Z,55.94
2022-11-24T00:19:14.575Z,56.33
2022-11-24T00:21:44.862Z,55.97
2022-11-24T00:24:12.855Z,56.17
2022-11-24T00:26:40.667Z,55.73
2022-11-24T00:29:11.163Z,56.01
2022-11-24T00:31:42.994Z,55.78
2022-11-24T00:34:14.410Z,55.20
2022-11-24T00:36:43.049Z,55.73
2022-11-24T00:39:16.147Z,55.54
2022-11-24T00:41:45.168Z,55.57
2022-11-24T00:44:12.965Z,55.18
2022-11-24T00:46:40.990Z,54.94
2022-11-24T00:49:08.912Z,55.49
2022-11-24T00:51:36.716Z,55.08
2022-11-24T00:54:04.546Z,55.13
2022-11-24T00:56:32.293Z,54.98
2022-11-24T00:59:00.047Z,55.55
2022-11-24T01:01:31.087Z,55.36
2022-11-24T01:04:03.735Z,54.88
2022-11-24T01:06:32.734Z,54.90
2022-11-24T01:09:00.813Z,54.57
2022-11-24T01:11:55.213Z,54.90
2022-11-24T01:14:24.755Z,54.57
2022-11-24T01:16:53.621Z,54.60
2022-11-24T01:19:22.149Z,54.20
2022-11-24T01:21:50.343Z,54.30
2022-11-24T01:24:18.288Z,54.31
2022-11-24T01:26:46.439Z,54.45
2022-11-24T01:29:14.357Z,54.06
2022-11-24T01:31:42.213Z,54.29
2022-11-24T01:34:10.258Z,54.17
2022-11-24T01:36:38.219Z,53.90
2022-11-24T01:39:06.449Z,53.65
2022-11-24T01:41:35.720Z,53.45
2022-11-24T01:44:28.791Z,53.78
2022-11-24T01:47:05.660Z,53.66
2022-11-24T01:49:44.904Z,53.75
2022-11-24T01:52:27.006Z,53.26
2022-11-24T01:55:06.377Z,53.17
2022-11-24T01:57:43.533Z,53.20
2022-11-24T02:00:14.466Z,53.33
2022-11-24T02:02:44.453Z,53.52
2022-11-24T02:05:43.429Z,53.40
2022-11-24T02:08:32.628Z,52.99
2022-11-24T02:11:04.013Z,53.09
2022-11-24T02:13:36.266Z,53.24
2022-11-24T02:16:07.654Z,53.17
2022-11-24T02:18:36.985Z,53.24
2022-11-24T02:21:05.412Z,53.21
2022-11-24T02:23:48.449Z,52.84
2022-11-24T02:26:31.252Z,53.10
2022-11-24T02:28:59.713Z,53.29
2022-11-24T02:31:27.763Z,53.24
2022-11-24T02:33:56.651Z,53.29
2022-11-24T02:36:24.689Z,53.00
2022-11-24T02:38:52.557Z,53.29
2022-11-24T02:41:25.388Z,52.89
2022-11-24T02:43:58.134Z,53.25
2022-11-24T02:46:26.005Z,53.25
2022-11-24T02:48:53.814Z,53.11
2022-11-24T02:51:21.656Z,53.43
2022-11-24T02:53:49.472Z,53.26
2022-11-24T02:56:17.306Z,53.27
2022-11-24T02:58:45.106Z,53.19
2022-11-24T03:01:12.969Z,53.15
2022-11-24T03:03:40.860Z,53.33
2022-11-24T03:06:08.678Z,53.26
2022-11-24T03:08:36.633Z,53.36
2022-11-24T03:11:04.661Z,53.47
2022-11-24T03:13:32.445Z,52.86
2022-11-24T03:16:00.318Z,53.61
2022-11-24T03:18:28.183Z,53.39
2022-11-24T03:21:00.178Z,53.76
2022-11-24T03:23:28.031Z,53.22
2022-11-24T03:25:55.776Z,53.55
2022-11-24T03:28:23.584Z,53.76
2022-11-24T03:30:51.419Z,53.43
2022-11-24T03:33:19.239Z,53.64
2022-11-24T03:35:46.997Z,53.17
2022-11-24T03:38:14.791Z,53.76
2022-11-24T03:40:42.566Z,53.31
2022-11-24T03:43:10.409Z,53.37
2022-11-24T03:45:45.861Z,53.04
2022-11-24T03:48:16.448Z,53.47
2022-11-24T03:50:52.360Z,53.28
2022-11-24T03:53:20.167Z,53.45
2022-11-24T03:55:47.994Z,53.25
2022-11-24T03:58:15.837Z,53.51
2022-11-24T04:00:44.408Z,53.38
2022-11-24T04:03:12.374Z,53.54
2022-11-24T04:05:40.224Z,53.85
2022-11-24T04:08:08.384Z,54.10
2022-11-24T04:10:38.559Z,54.27
2022-11-24T04:13:13.976Z,53.70
2022-11-24T04:15:43.194Z,53.80
2022-11-24T04:18:12.900Z,53.90
2022-11-24T04:20:41.798Z,53.90
2022-11-24T04:23:10.868Z,54.48
2022-11-24T04:25:39.102Z,54.12
2022-11-24T04:28:07.205Z,53.83
2022-11-24T04:30:36.132Z,54.30
2022-11-24T04:33:04.110Z,54.23
2022-11-24T04:35:31.958Z,53.86
2022-11-24T04:38:03.199Z,54.25
2022-11-24T04:40:31.008Z,53.93
2022-11-24T04:42:58.851Z,53.72
2022-11-24T04:45:26.662Z,53.66
2022-11-24T04:47:54.497Z,53.79
2022-11-24T04:50:22.417Z,54.10
2022-11-24T04:52:50.333Z,53.70
2022-11-24T04:55:18.444Z,53.74
2022-11-24T04:57:46.250Z,54.07
2022-11-24T05:00:14.708Z,53.96
2022-11-24T05:02:42.475Z,53.84
2022-11-24T05:05:10.451Z,54.16
2022-11-24T05:07:38.561Z,54.50
2022-11-24T05:10:25.569Z,54.01
2022-11-24T05:12:59.362Z,54.11
2022-11-24T05:15:27.895Z,54.07
2022-11-24T05:17:56.212Z,54.06
2022-11-24T05:20:24.840Z,53.76
2022-11-24T05:22:52.707Z,54.00
2022-11-24T05:25:20.741Z,53.67
2022-11-24T05:27:48.592Z,53.94
2022-11-24T05:30:16.699Z,54.29
2022-11-24T05:32:44.471Z,53.67
2022-11-24T05:35:12.380Z,54.09
2022-11-24T05:37:40.147Z,53.59
2022-11-24T05:40:08.590Z,53.96
2022-11-24T05:42:47.340Z,53.95
2022-11-24T05:45:20.651Z,53.58
2022-11-24T05:47:50.632Z,53.37
2022-11-24T05:50:21.825Z,53.62
2022-11-24T05:52:50.321Z,53.79
2022-11-24T05:55:19.662Z,53.90
2022-11-24T05:57:47.541Z,53.69
2022-11-24T06:00:18.245Z,53.70
2022-11-24T06:02:46.168Z,53.99
2022-11-24T06:05:14.127Z,53.50
2022-11-24T06:07:42.071Z,53.46
2022-11-24T06:10:10.625Z,53.98
2022-11-24T06:12:38.411Z,54.06
2022-11-24T06:15:06.894Z,53.85
2022-11-24T06:17:35.006Z,54.06
2022-11-24T06:20:03.123Z,54.03
2022-11-24T06:22:31.473Z,54.17
2022-11-24T06:24:59.345Z,53.86
2022-11-24T06:27:27.185Z,54.54
2022-11-24T06:29:55.115Z,54.20
2022-11-24T06:32:24.167Z,54.28
2022-11-24T06:34:51.963Z,54.61
2022-11-24T06:37:19.884Z,54.65
2022-11-24T06:39:48.487Z,54.53
2022-11-24T06:42:18.967Z,54.47
2022-11-24T06:44:49.837Z,54.62
2022-11-24T06:47:17.700Z,54.44
2022-11-24T06:49:45.491Z,54.19
2022-11-24T06:52:13.318Z,54.57
2022-11-24T06:54:43.992Z,54.55
2022-11-24T06:57:12.144Z,54.70
2022-11-24T06:59:39.954Z,54.73
2022-11-24T07:02:09.943Z,55.19
2022-11-24T07:04:37.808Z,54.85
2022-11-24T07:07:05.547Z,56.04
2022-11-24T07:09:33.393Z,55.72
2022-11-24T07:12:02.432Z,55.82
2022-11-24T07:14:30.237Z,56.09
2022-11-24T07:16:58.063Z,55.96
2022-11-24T07:19:25.895Z,55.55
2022-11-24T07:21:53.841Z,55.85
2022-11-24T07:24:21.720Z,56.07
2022-11-24T07:26:49.584Z,56.51
2022-11-24T07:29:17.438Z,56.92
2022-11-24T07:31:46.028Z,56.88
2022-11-24T07:34:14.863Z,57.23
2022-11-24T07:36:43.026Z,57.19
2022-11-24T07:39:10.882Z,57.19
2022-11-24T07:41:39.489Z,57.60
2022-11-24T07:44:08.613Z,57.58
2022-11-24T07:46:37.107Z,58.20
2022-11-24T07:49:05.355Z,57.74
2022-11-24T07:51:33.951Z,58.17
2022-11-24T07:54:02.163Z,58.03
2022-11-24T07:56:30.171Z,57.95
2022-11-24T07:58:57.965Z,57.52
2022-11-24T08:01:25.956Z,57.48
2022-11-24T08:03:54.024Z,57.40
2022-11-24T08:06:26.166Z,57.87
2022-11-24T08:08:56.544Z,57.42
2022-11-24T08:11:25.087Z,57.32
2022-11-24T08:13:53.073Z,57.54
2022-11-24T08:16:21.298Z,57.53
2022-11-24T08:18:51.949Z,57.97
2022-11-24T08:21:21.069Z,57.57
2022-11-24T08:23:49.437Z,57.10
2022-11-24T08:26:19.172Z,57.05
2022-11-24T08:28:48.425Z,56.77
2022-11-24T08:31:21.421Z,56.50
2022-11-24T08:33:49.412Z,56.61
2022-11-24T08:36:19.527Z,56.24
2022-11-24T08:38:49.502Z,56.26
2022-11-24T08:41:17.894Z,56.18
2022-11-24T08:44:10.817Z,56.11
2022-11-24T08:46:38.780Z,56.02
2022-11-24T08:49:07.275Z,55.68
2022-11-24T08:51:35.123Z,55.67
2022-11-24T08:54:04.095Z,55.50
2022-11-24T08:56:33.709Z,55.71
2022-11-24T08:59:02.367Z,55.40
2022-11-24T09:01:30.606Z,55.01
2022-11-24T09:03:58.727Z,55.16
2022-11-24T09:06:32.315Z,54.95
2022-11-24T09:09:00.544Z,55.32
2022-11-24T09:11:29.393Z,55.33
2022-11-24T09:13:57.964Z,54.83
2022-11-24T09:16:29.081Z,54.79
2022-11-24T09:19:01.965Z,54.58
2022-11-24T09:21:31.987Z,54.55
2022-11-24T09:24:00.323Z,54.40
2022-11-24T09:26:32.304Z,54.16
2022-11-24T09:29:03.367Z,54.00
2022-11-24T09:31:35.621Z,54.56
2022-11-24T09:34:11.511Z,54.09
2022-11-24T09:36:39.320Z,53.88
2022-11-24T09:39:11.076Z,53.75
2022-11-24T09:41:42.141Z,53.95
2022-11-24T09:44:50.109Z,54.04
2022-11-24T09:47:17.758Z,53.88
2022-11-24T09:49:54.340Z,53.96
2022-11-24T09:53:05.608Z,53.87
2022-11-24T09:55:59.168Z,53.85
2022-11-24T09:58:51.274Z,53.58
2022-11-24T10:01:26.396Z,53.29
2022-11-24T10:03:55.024Z,53.54
2022-11-24T10:06:34.887Z,53.81
2022-11-24T10:09:35.010Z,53.40
2022-11-24T10:12:49.800Z,53.67
2022-11-24T10:15:55.249Z,53.44
2022-11-24T10:18:22.949Z,53.50
2022-11-24T10:21:34.163Z,53.47
2022-11-24T10:24:49.265Z,53.41
2022-11-24T10:27:19.094Z,53.67
2022-11-24T10:29:52.411Z,53.38
2022-11-24T10:32:41.601Z,53.71
2022-11-24T10:35:17.759Z,54.19
2022-11-24T10:38:09.968Z,54.02
2022-11-24T10:40:57.375Z,53.67
2022-11-24T10:43:28.683Z,53.66
2022-11-24T10:46:26.086Z,54.55
2022-11-24T10:49:05.172Z,54.81
2022-11-24T10:51:44.704Z,54.05
2022-11-24T10:54:19.388Z,54.06
2022-11-24T10:56:50.953Z,53.69
2022-11-24T10:59:24.793Z,54.16
2022-11-24T11:01:53.224Z,53.91
2022-11-24T11:04:29.083Z,53.79
2022-11-24T11:07:21.992Z,53.59
2022-11-24T11:09:50.965Z,55.03
2022-11-24T11:12:45.758Z,54.60
2022-11-24T11:15:30.890Z,54.77
2022-11-24T11:18:01.920Z,54.89
2022-11-24T11:20:33.846Z,54.45
2022-11-24T11:23:21.170Z,54.35
2022-11-24T11:25:48.947Z,53.71
2022-11-24T11:28:56.772Z,53.77
2022-11-24T11:31:24.756Z,53.11
2022-11-24T11:34:26.629Z,52.92
2022-11-24T11:36:57.309Z,53.29
2022-11-24T11:39:48.721Z,53.40
2022-11-24T11:43:00.912Z,52.71
2022-11-24T11:45:37.328Z,53.28
2022-11-24T11:48:35.084Z,54.83
2022-11-24T11:51:44.454Z,55.32
2022-11-24T11:54:34.561Z,54.95
2022-11-24T11:57:18.366Z,53.99
2022-11-24T12:00:10.348Z,53.92
2022-11-24T12:03:08.510Z,53.68
2022-11-24T12:06:08.795Z,53.29
2022-11-24T12:09:32.957Z,52.99
2022-11-24T12:12:48.929Z,53.35
2022-11-24T12:15:54.802Z,52.90
2022-11-24T12:19:05.533Z,52.55
2022-11-24T12:21:37.080Z,52.12
2022-11-24T12:24:22.035Z,53.58
2022-11-24T12:27:10.963Z,53.77
2022-11-24T12:30:05.447Z,53.61
2022-11-24T12:32:48.167Z,53.57
2022-11-24T12:35:52.942Z,51.87
2022-11-24T12:38:48.391Z,52.31
2022-11-24T12:42:03.703Z,51.25
2022-11-24T12:44:59.796Z,50.97
2022-11-24T12:47:58.899Z,50.17
2022-11-24T12:50:29.397Z,50.10
2022-11-24T12:53:22.225Z,49.63
2022-11-24T12:55:50.438Z,49.39
2022-11-24T12:58:35.002Z,48.99
2022-11-24T13:01:36.411Z,48.97
2022-11-24T13:04:37.942Z,48.95
2022-11-24T13:07:45.319Z,48.61
2022-11-24T13:10:55.397Z,47.96
2022-11-24T13:13:15.464Z,48.49
2022-11-24T13:18:57.037Z,48.63
2022-11-24T13:21:43.028Z,48.77
2022-11-24T13:24:16.707Z,48.63
2022-11-24T13:26:49.983Z,48.17
2022-11-24T13:29:41.384Z,47.26
2022-11-24T13:32:09.166Z,47.21
2022-11-24T13:34:39.772Z,47.21
2022-11-24T13:37:31.699Z,46.27
2022-11-24T13:40:12.599Z,47.98
2022-11-24T13:42:56.269Z,47.70
2022-11-24T13:45:45.930Z,47.22
2022-11-24T13:48:20.390Z,46.75
2022-11-24T13:50:54.340Z,46.92
2022-11-24T13:53:41.933Z,47.10
2022-11-24T13:56:12.977Z,47.16
2022-11-24T13:58:56.560Z,47.07
2022-11-24T14:01:31.336Z,47.16
2022-11-24T14:04:32.921Z,47.04
2022-11-24T14:07:11.737Z,46.91
2022-11-24T14:09:50.107Z,46.74
2022-11-24T14:12:24.621Z,46.23
2022-11-24T14:14:57.000Z,46.39
2022-11-24T14:17:28.385Z,46.85
2022-11-24T14:19:58.463Z,46.57
2022-11-24T14:22:40.252Z,46.39
2022-11-24T14:25:22.977Z,46.33
2022-11-24T14:27:50.845Z,46.41
2022-11-24T14:30:22.374Z,46.42
2022-11-24T14:33:02.204Z,46.53
2022-11-24T14:35:36.118Z,46.32
2022-11-24T14:38:06.192Z,46.15
2022-11-24T14:40:48.496Z,46.19
2022-11-24T14:43:30.374Z,46.11
2022-11-24T14:46:03.562Z,45.98
2022-11-24T14:48:37.501Z,46.15
2022-11-24T14:51:16.863Z,46.23
2022-11-24T14:53:46.905Z,46.27
2022-11-24T14:56:25.129Z,46.15
2022-11-24T14:58:54.621Z,46.12
2022-11-24T15:01:40.702Z,46.54
2022-11-24T15:04:32.473Z,46.69
2022-11-24T15:07:27.419Z,46.44
2022-11-24T15:10:01.920Z,46.86
2022-11-24T15:12:42.024Z,46.76
2022-11-24T15:15:15.835Z,46.85
2022-11-24T15:17:58.051Z,46.77
2022-11-24T15:20:37.700Z,46.81
2022-11-24T15:23:30.128Z,47.18
2022-11-24T15:26:01.269Z,47.06
2022-11-24T15:28:31.328Z,47.33
2022-11-24T15:31:06.216Z,47.18
2022-11-24T15:33:34.074Z,47.40
2022-11-24T15:36:01.886Z,47.20
2022-11-24T15:38:29.649Z,47.29
2022-11-24T15:41:00.616Z,47.54
2022-11-24T15:43:41.062Z,47.67
2022-11-24T15:46:09.543Z,47.88
2022-11-24T15:48:37.917Z,47.43
2022-11-24T15:51:12.735Z,47.47
2022-11-24T15:53:54.527Z,47.79
2022-11-24T15:56:34.008Z,48.00
2022-11-24T15:59:04.215Z,48.34
2022-11-24T16:01:34.147Z,48.14
2022-11-24T16:04:03.009Z,48.40
2022-11-24T16:06:31.006Z,48.52
2022-11-24T16:08:59.212Z,48.45
2022-11-24T16:11:27.431Z,48.51
2022-11-24T16:13:55.294Z,48.68
2022-11-24T16:16:25.208Z,48.77
2022-11-24T16:18:53.306Z,48.53
2022-11-24T16:21:21.137Z,48.98
2022-11-24T16:23:49.077Z,48.84
2022-11-24T16:26:16.847Z,49.11
2022-11-24T16:28:45.920Z,49.07
2022-11-24T16:31:16.089Z,49.32
2022-11-24T16:33:46.442Z,48.77
2022-11-24T16:36:14.874Z,49.22
2022-11-24T16:38:42.658Z,49.23
2022-11-24T16:41:10.717Z,48.96
2022-11-24T16:43:38.826Z,49.16
2022-11-24T16:46:23.005Z,49.44
2022-11-24T16:48:52.818Z,49.19
2022-11-24T16:51:22.519Z,49.21
2022-11-24T16:54:02.251Z,49.29
2022-11-24T16:56:31.173Z,49.39
2022-11-24T16:58:59.213Z,49.65
2022-11-24T17:01:27.266Z,49.48
2022-11-24T17:03:55.137Z,49.67
2022-11-24T17:06:23.533Z,49.34
2022-11-24T17:08:51.514Z,49.18
2022-11-24T17:11:23.076Z,49.60
2022-11-24T17:13:51.338Z,49.93
2022-11-24T17:16:23.113Z,49.68
2022-11-24T17:18:51.825Z,50.08
2022-11-24T17:21:24.761Z,49.63
2022-11-24T17:23:58.509Z,49.66
2022-11-24T17:26:27.967Z,49.96
2022-11-24T17:28:56.303Z,49.94
2022-11-24T17:31:29.352Z,50.48
2022-11-24T17:33:59.773Z,50.03
2022-11-24T17:36:29.409Z,49.90
2022-11-24T17:38:59.462Z,49.80
2022-11-24T17:41:27.936Z,49.75
2022-11-24T17:43:56.765Z,50.07
2022-11-24T17:46:26.984Z,50.23
2022-11-24T17:48:54.879Z,50.23
2022-11-24T17:51:25.875Z,50.73
2022-11-24T17:53:55.689Z,50.26
2022-11-24T17:56:27.752Z,50.74
2022-11-24T17:58:58.915Z,50.77
2022-11-24T18:01:31.574Z,50.69
2022-11-24T18:03:59.998Z,50.91
2022-11-24T18:06:28.844Z,50.77
2022-11-24T18:08:57.991Z,50.63
2022-11-24T18:11:31.819Z,50.95
2022-11-24T18:14:03.271Z,50.93
2022-11-24T18:16:37.009Z,50.51
2022-11-24T18:19:11.580Z,50.78
2022-11-24T18:21:42.609Z,51.15
2022-11-24T18:24:12.686Z,51.36
2022-11-24T18:26:42.718Z,50.76
2022-11-24T18:29:13.494Z,50.77
2022-11-24T18:31:42.641Z,50.67
2022-11-24T18:34:14.294Z,50.96
2022-11-24T18:36:45.304Z,51.00
2022-11-24T18:39:18.767Z,50.85
2022-11-24T18:41:47.625Z,51.40
2022-11-24T18:44:16.134Z,50.84
2022-11-24T18:46:44.781Z,51.13
2022-11-24T18:49:14.466Z,51.52
2022-11-24T18:51:44.437Z,51.54
2022-11-24T18:54:38.700Z,51.56
2022-11-24T18:57:07.097Z,51.75
2022-11-24T18:59:35.157Z,51.71
2022-11-24T19:02:03.307Z,52.14
2022-11-24T19:04:31.499Z,51.87
2022-11-24T19:06:59.295Z,51.91
2022-11-24T19:09:27.187Z,52.28
2022-11-24T19:11:55.081Z,52.00
2022-11-24T19:14:23.097Z,52.12
2022-11-24T19:16:51.190Z,52.40
2022-11-24T19:19:19.107Z,52.41
2022-11-24T19:21:47.057Z,52.75
2022-11-24T19:24:14.956Z,52.61
2022-11-24T19:26:42.890Z,52.72
2022-11-24T19:29:10.963Z,52.82
2022-11-24T19:31:40.191Z,52.74
2022-11-24T19:34:08.321Z,52.34
2022-11-24T19:36:36.791Z,52.46
2022-11-24T19:39:05.268Z,52.48
2022-11-24T19:41:34.121Z,52.56
2022-11-24T19:44:01.985Z,52.72
2022-11-24T19:46:30.367Z,52.82
2022-11-24T19:49:02.217Z,52.52
2022-11-24T19:51:33.228Z,52.61
2022-11-24T19:54:02.256Z,52.91
2022-11-24T19:56:34.744Z,52.94
2022-11-24T19:59:05.350Z,52.56
2022-11-24T20:01:39.900Z,52.87
2022-11-24T20:04:13.193Z,52.57
2022-11-24T20:06:44.981Z,52.83
2022-11-24T20:09:15.853Z,52.61
2022-11-24T20:11:44.347Z,52.66
2022-11-24T20:14:15.371Z,52.71
2022-11-24T20:16:45.450Z,52.43
2022-11-24T20:19:15.236Z,52.56
2022-11-24T20:21:46.370Z,52.27
2022-11-24T20:24:18.682Z,52.49
2022-11-24T20:26:50.565Z,52.31
2022-11-24T20:29:18.959Z,52.61
2022-11-24T20:31:53.924Z,52.60
2022-11-24T20:34:23.398Z,52.45
2022-11-24T20:36:53.082Z,52.50
2022-11-24T20:39:26.433Z,52.22
2022-11-24T20:41:55.718Z,52.39
2022-11-24T20:44:26.778Z,52.62
2022-11-24T20:46:56.962Z,52.45
2022-11-24T20:49:25.822Z,52.62
2022-11-24T20:51:57.457Z,52.18
2022-11-24T20:54:25.572Z,52.55
2022-11-24T20:56:53.436Z,52.54
2022-11-24T20:59:23.531Z,52.42
2022-11-24T21:01:55.086Z,52.38
2022-11-24T21:04:26.701Z,52.53
2022-11-24T21:06:55.135Z,52.39
2022-11-24T21:09:23.138Z,52.33
2022-11-24T21:11:50.945Z,52.95
2022-11-24T21:14:18.752Z,52.86
2022-11-24T21:16:46.631Z,52.50
2022-11-24T21:19:18.745Z,52.95
2022-11-24T21:21:48.727Z,52.68
2022-11-24T21:24:22.999Z,53.16
2022-11-24T21:26:52.715Z,52.77
2022-11-24T21:29:23.494Z,52.75
2022-11-24T21:31:52.473Z,53.08
2022-11-24T21:34:20.652Z,52.85
2022-11-24T21:36:48.868Z,52.89
2022-11-24T21:39:17.170Z,52.82
2022-11-24T21:41:45.011Z,52.81
2022-11-24T21:44:13.772Z,53.16
2022-11-24T21:46:48.161Z,53.16
2022-11-24T21:49:18.867Z,52.72
2022-11-24T21:51:47.109Z,52.82
2022-11-24T21:54:14.828Z,53.01
2022-11-24T21:56:42.697Z,52.92
2022-11-24T21:59:10.624Z,52.85
2022-11-24T22:01:38.713Z,53.10
2022-11-24T22:04:06.559Z,53.28
2022-11-24T22:06:34.304Z,53.45
2022-11-24T22:09:02.109Z,53.32
2022-11-24T22:11:29.838Z,52.83
2022-11-24T22:13:57.642Z,53.35
2022-11-24T22:16:25.834Z,53.03
2022-11-24T22:18:53.745Z,53.40
2022-11-24T22:21:25.626Z,53.49
2022-11-24T22:23:53.645Z,53.63
2022-11-24T22:26:23.961Z,53.62
2022-11-24T22:28:53.311Z,53.45
2022-11-24T22:31:30.349Z,53.29
2022-11-24T22:34:00.278Z,53.28
2022-11-24T22:36:29.908Z,53.64
2022-11-24T22:39:03.278Z,53.67
2022-11-24T22:41:34.195Z,54.07
2022-11-24T22:44:02.642Z,53.70
2022-11-24T22:46:31.860Z,53.90
2022-11-24T22:49:01.135Z,53.82
2022-11-24T22:51:34.626Z,54.17
2022-11-24T22:54:05.085Z,53.95
2022-11-24T22:56:33.819Z,54.21
2022-11-24T22:59:02.971Z,53.88
2022-11-24T23:01:33.638Z,54.16
2022-11-24T23:04:02.648Z,54.12
2022-11-24T23:06:32.720Z,54.18
2022-11-24T23:09:03.638Z,53.90
2022-11-24T23:11:38.269Z,53.95
2022-11-24T23:14:15.155Z,54.51
2022-11-24T23:16:43.803Z,53.98
2022-11-24T23:19:11.721Z,53.96
2022-11-24T23:21:39.909Z,53.85
2022-11-24T23:24:10.198Z,54.00
2022-11-24T23:26:40.897Z,53.86
2022-11-24T23:29:10.349Z,54.41
2022-11-24T23:31:40.148Z,54.05
2022-11-24T23:34:08.314Z,54.03
2022-11-24T23:36:36.059Z,54.06
2022-11-24T23:39:11.149Z,54.33
2022-11-24T23:41:38.917Z,54.59
2022-11-24T23:44:07.727Z,54.39
2022-11-24T23:46:35.786Z,54.25
2022-11-24T23:49:03.720Z,54.53
2022-11-24T23:51:33.011Z,54.29
2022-11-24T23:54:01.305Z,54.58
2022-11-24T23:56:33.454Z,54.52
2022-11-24T23:59:03.817Z,54.65
